Time;durP1;ratioP1;P1;durP2;ratioP2;P2;SDS_P1;SDS_P2;PMS_P1;PMS_P2;Temp;Humidity;BMP_temperature;BMP_pressure;BME280_temperature;BME280_humidity;BME280_pressure;Samples;Min_cycle;Max_cycle;Signal;HPM_P1;HPM_P2
2021/09/03 00:00:12;;;;;;;12.70;4.60;;;;;;;15.47;54.90;96986.66;5053357;28;20051;-58
2021/09/03 00:02:39;;;;;;;11.68;4.38;;;;;;;15.48;55.22;96990.97;5053158;28;20025;-54
2021/09/03 00:05:08;;;;;;;10.25;4.03;;;;;;;15.42;56.56;96989.50;5052952;28;20118;-53
2021/09/03 00:07:34;;;;;;;7.35;4.20;;;;;;;15.32;56.93;96986.47;5053038;28;20021;-54
2021/09/03 00:10:00;;;;;;;7.35;4.32;;;;;;;15.33;57.46;96992.59;5053020;28;20029;-53
2021/09/03 00:12:25;;;;;;;9.77;5.53;;;;;;;15.33;57.34;96993.47;5053153;28;20100;-53
2021/09/03 00:14:51;;;;;;;8.73;3.95;;;;;;;15.34;58.15;96995.16;5052869;28;20027;-57
2021/09/03 00:17:16;;;;;;;6.28;4.07;;;;;;;15.30;57.76;96990.97;5052891;28;20024;-54
2021/09/03 00:19:42;;;;;;;5.50;3.55;;;;;;;15.24;58.10;96994.78;5052970;28;20021;-52
2021/09/03 00:22:08;;;;;;;6.60;4.10;;;;;;;15.22;59.12;96995.75;5052875;28;20134;-52
2021/09/03 00:24:33;;;;;;;6.68;3.83;;;;;;;15.12;58.26;96990.97;5052961;28;20111;-54
2021/09/03 00:26:59;;;;;;;7.38;4.28;;;;;;;15.06;58.01;96987.78;5052874;28;20502;-53
2021/09/03 00:29:24;;;;;;;7.35;3.80;;;;;;;15.13;58.54;96997.06;5052827;28;20040;-59
2021/09/03 00:31:50;;;;;;;9.63;4.50;;;;;;;15.15;58.75;97000.50;5052775;28;20025;-54
2021/09/03 00:34:16;;;;;;;7.30;4.50;;;;;;;15.17;59.34;97006.53;5052919;28;20106;-54
2021/09/03 00:36:46;;;;;;;7.60;4.15;;;;;;;15.20;59.72;97005.53;5052968;28;20037;-56
2021/09/03 00:39:11;;;;;;;8.55;4.45;;;;;;;15.26;58.32;96999.97;5052720;28;20029;-53
2021/09/03 00:41:37;;;;;;;9.27;3.85;;;;;;;15.26;59.35;97007.88;5052699;28;20044;-57
2021/09/03 00:44:02;;;;;;;6.50;4.28;;;;;;;15.28;59.54;97001.59;5052709;28;20375;-52
2021/09/03 00:46:28;;;;;;;10.40;4.63;;;;;;;15.29;59.10;97000.66;5052883;28;20406;-55
2021/09/03 00:48:54;;;;;;;6.35;4.13;;;;;;;15.30;60.08;96993.63;5052760;28;20025;-54
2021/09/03 00:51:20;;;;;;;12.70;4.32;;;;;;;15.24;60.21;97005.31;5052748;28;20028;-55
2021/09/03 00:53:46;;;;;;;6.70;4.60;;;;;;;15.24;60.18;97005.31;5052614;28;20021;-54
2021/09/03 00:56:11;;;;;;;7.20;4.03;;;;;;;15.29;60.21;96995.38;5054478;28;20040;-54
2021/09/03 00:58:37;;;;;;;6.93;3.75;;;;;;;15.28;59.06;96996.31;5056396;28;20494;-53
2021/09/03 01:01:04;;;;;;;7.10;3.58;;;;;;;15.32;59.28;96983.81;5056360;28;20033;-56
2021/09/03 01:03:29;;;;;;;11.25;4.65;;;;;;;15.37;61.64;96991.50;5038609;28;20021;-51
2021/09/03 01:05:55;;;;;;;11.43;4.28;;;;;;;15.37;60.85;96983.59;5056224;28;20032;-55
2021/09/03 01:08:21;;;;;;;7.70;3.67;;;;;;;15.38;60.92;96993.25;5056159;28;20029;-56
2021/09/03 01:10:46;;;;;;;9.13;3.97;;;;;;;15.19;58.67;96982.72;5056354;28;20375;-58
2021/09/03 01:13:12;;;;;;;6.65;3.78;;;;;;;15.22;59.20;96987.84;5056215;28;20437;-57
2021/09/03 01:15:37;;;;;;;5.22;4.25;;;;;;;15.28;59.66;96983.16;5056016;28;20040;-54
2021/09/03 01:18:05;;;;;;;7.22;3.78;;;;;;;15.22;59.34;96991.34;5056009;28;20017;-55
2021/09/03 01:20:30;;;;;;;8.18;3.95;;;;;;;15.16;59.34;96986.38;5056243;28;20021;-54
2021/09/03 01:22:56;;;;;;;7.00;3.67;;;;;;;15.14;58.63;96986.47;5056056;28;20395;-51
2021/09/03 01:25:21;;;;;;;5.70;3.60;;;;;;;15.17;58.45;96980.19;5055948;28;20029;-54
2021/09/03 01:27:47;;;;;;;8.80;3.65;;;;;;;15.20;59.68;96979.19;5055268;28;20490;-54
2021/09/03 01:30:15;;;;;;;5.93;4.03;;;;;;;15.21;60.70;96981.75;5055795;28;20028;-53
2021/09/03 01:32:41;;;;;;;7.57;3.72;;;;;;;15.08;58.91;96984.13;5055919;28;20016;-54
2021/09/03 01:35:07;;;;;;;17.30;5.35;;;;;;;15.11;60.68;96983.16;5055774;28;20021;-56
2021/09/03 01:37:33;;;;;;;4.53;3.33;;;;;;;15.12;61.22;96979.56;5055717;28;20116;-55
2021/09/03 01:39:59;;;;;;;4.75;3.20;;;;;;;15.16;61.43;96987.25;5055569;28;20021;-52
2021/09/03 01:42:25;;;;;;;9.13;4.82;;;;;;;15.20;61.37;96993.19;5055313;28;20105;-57
2021/09/03 01:44:50;;;;;;;7.88;3.65;;;;;;;15.21;61.84;96981.75;5055588;28;20028;-57
2021/09/03 01:47:16;;;;;;;6.43;4.32;;;;;;;15.25;61.68;96985.06;5055501;28;20155;-54
2021/09/03 01:49:41;;;;;;;7.63;4.00;;;;;;;15.25;62.92;96977.16;5055623;28;20100;-52
2021/09/03 01:52:07;;;;;;;6.22;3.70;;;;;;;15.14;61.51;96988.25;5055446;28;20112;-53
2021/09/03 01:54:33;;;;;;;6.15;3.90;;;;;;;15.13;61.57;96982.13;5055335;28;20537;-55
2021/09/03 01:56:58;;;;;;;9.65;3.55;;;;;;;15.15;61.48;96985.53;5055349;28;20399;-53
2021/09/03 01:59:24;;;;;;;10.75;4.10;;;;;;;15.20;61.46;96989.72;5055320;28;20029;-55
2021/09/03 02:01:49;;;;;;;7.38;4.00;;;;;;;15.24;63.19;96983.38;5055504;28;20029;-51
2021/09/03 02:04:15;;;;;;;5.85;3.65;;;;;;;15.29;63.79;96984.84;5055050;28;20112;-54
2021/09/03 02:06:40;;;;;;;8.02;3.58;;;;;;;15.32;63.86;96986.47;5054284;28;20025;-58
2021/09/03 02:09:06;;;;;;;7.28;3.85;;;;;;;15.36;64.73;96977.50;5054793;28;20021;-54
2021/09/03 02:11:32;;;;;;;7.20;3.83;;;;;;;15.28;64.25;96977.00;5055150;28;20021;-53
2021/09/03 02:13:58;;;;;;;5.38;4.15;;;;;;;15.26;63.55;96978.91;5055109;28;20033;-54
2021/09/03 02:16:24;;;;;;;9.88;3.63;;;;;;;15.25;63.21;96983.31;5054978;28;20079;-53
2021/09/03 02:18:49;;;;;;;6.47;3.90;;;;;;;15.25;62.81;96980.66;5054871;28;20067;-51
2021/09/03 02:21:15;;;;;;;5.22;3.85;;;;;;;15.11;63.54;96983.16;5054978;28;20024;-54
2021/09/03 02:23:41;;;;;;;6.40;3.90;;;;;;;14.95;63.65;96990.91;5054845;28;20022;-53
2021/09/03 02:26:07;;;;;;;9.93;4.25;;;;;;;14.80;62.84;96984.59;5054732;28;20036;-51
2021/09/03 02:28:33;;;;;;;10.20;4.00;;;;;;;14.78;64.16;96977.66;5054755;28;20029;-53
2021/09/03 02:30:59;;;;;;;7.63;3.80;;;;;;;14.83;66.05;96993.22;5054621;28;20013;-53
2021/09/03 02:33:24;;;;;;;6.25;3.95;;;;;;;14.87;65.31;96988.69;5054682;28;20025;-56
2021/09/03 02:35:50;;;;;;;7.75;3.90;;;;;;;14.88;65.83;96993.00;5054771;28;20029;-55
2021/09/03 02:38:15;;;;;;;5.80;3.70;;;;;;;14.93;66.84;96991.00;5054602;28;20475;-56
2021/09/03 02:40:41;;;;;;;6.88;3.90;;;;;;;14.97;67.13;96991.72;5054576;28;20094;-53
2021/09/03 02:43:07;;;;;;;6.00;3.78;;;;;;;14.97;65.93;96983.81;5054328;28;20065;-53
2021/09/03 02:45:32;;;;;;;5.43;3.67;;;;;;;14.98;66.04;96991.63;5054391;28;20029;-55
2021/09/03 02:47:58;;;;;;;10.55;3.80;;;;;;;15.00;66.04;96984.53;5054465;28;20029;-54
2021/09/03 02:50:23;;;;;;;5.15;3.72;;;;;;;14.98;65.17;96980.25;5054346;28;20109;-52
2021/09/03 02:52:49;;;;;;;8.10;4.32;;;;;;;15.05;65.81;96986.06;5054185;28;20032;-56
2021/09/03 02:55:15;;;;;;;4.80;3.58;;;;;;;15.05;65.54;96989.53;5054203;28;20029;-58
2021/09/03 02:57:40;;;;;;;4.90;3.50;;;;;;;15.04;64.87;96985.22;5054176;28;20467;-53
2021/09/03 03:00:07;;;;;;;5.20;3.53;;;;;;;15.08;65.36;96984.13;5054138;28;20471;-57
2021/09/03 03:02:34;;;;;;;7.30;3.78;;;;;;;15.03;63.96;96986.16;5054039;28;20109;-54
2021/09/03 03:04:59;;;;;;;6.28;3.72;;;;;;;15.01;64.43;96980.09;5053985;28;20111;-57
2021/09/03 03:07:25;;;;;;;6.25;3.70;;;;;;;15.02;63.69;96979.19;5054051;28;20515;-53
2021/09/03 03:09:50;;;;;;;5.60;3.70;;;;;;;15.03;64.90;96980.88;5054124;28;20524;-54
2021/09/03 03:12:19;;;;;;;4.63;3.22;;;;;;;15.04;65.29;96972.03;5053935;28;20032;-56
2021/09/03 03:14:45;;;;;;;4.78;3.28;;;;;;;15.02;65.78;96973.91;5053832;28;20041;-53
2021/09/03 03:17:11;;;;;;;10.40;5.03;;;;;;;15.04;66.34;96979.94;5053804;28;20039;-54
2021/09/03 03:19:37;;;;;;;5.25;3.60;;;;;;;14.91;65.30;96974.44;5053446;28;20082;-56
2021/09/03 03:22:03;;;;;;;7.30;3.83;;;;;;;14.81;64.76;96975.81;5053692;28;20021;-58
2021/09/03 03:24:30;;;;;;;5.53;3.72;;;;;;;14.81;64.58;96981.91;5053498;28;20490;-53
2021/09/03 03:26:56;;;;;;;7.53;3.72;;;;;;;14.82;64.47;96974.88;5053589;28;20032;-57
2021/09/03 03:29:22;;;;;;;6.50;4.30;;;;;;;14.84;64.03;96981.75;5053603;28;20021;-54
2021/09/03 03:31:48;;;;;;;6.20;3.88;;;;;;;14.86;65.35;96985.19;5053468;28;20062;-57
2021/09/03 03:34:14;;;;;;;6.45;3.30;;;;;;;14.87;64.57;96983.41;5053555;28;20025;-53
2021/09/03 03:36:39;;;;;;;26.08;4.90;;;;;;;14.93;64.70;96990.16;5053409;28;20036;-58
2021/09/03 03:39:06;;;;;;;10.25;3.55;;;;;;;14.96;66.40;96990.84;5053521;28;20020;-57
2021/09/03 03:41:32;;;;;;;6.57;4.00;;;;;;;14.98;65.50;96990.78;5053133;28;20064;-55
2021/09/03 03:43:57;;;;;;;5.70;3.42;;;;;;;14.91;66.45;96996.34;5053464;28;20475;-55
2021/09/03 03:46:23;;;;;;;7.95;3.40;;;;;;;14.83;64.56;97000.25;5053403;28;20024;-51
2021/09/03 03:48:49;;;;;;;6.88;3.58;;;;;;;14.78;65.50;97016.31;5053465;28;20021;-53
2021/09/03 03:51:14;;;;;;;5.97;3.65;;;;;;;14.63;66.22;97023.94;5053209;28;20434;-57
2021/09/03 03:53:40;;;;;;;8.68;3.60;;;;;;;14.69;66.41;97027.25;5053180;28;20486;-54
2021/09/03 03:56:05;;;;;;;6.32;3.40;;;;;;;14.75;67.03;97030.41;5053131;28;20032;-55
2021/09/03 03:58:31;;;;;;;6.28;3.75;;;;;;;14.78;66.78;97032.13;5053275;28;20060;-54
2021/09/03 04:00:57;;;;;;;5.35;3.60;;;;;;;14.70;65.44;97042.97;5053221;28;20075;-51
2021/09/03 04:03:22;;;;;;;9.93;3.90;;;;;;;14.73;66.38;97039.34;5053031;28;20079;-55
2021/09/03 04:05:48;;;;;;;7.45;3.03;;;;;;;14.70;66.46;97042.97;5052933;28;20111;-55
2021/09/03 04:08:13;;;;;;;13.18;3.17;;;;;;;14.72;67.32;97045.53;5053075;28;20103;-56
2021/09/03 04:10:39;;;;;;;8.57;3.42;;;;;;;14.78;66.91;97045.28;5035135;28;20479;-56
2021/09/03 04:13:04;;;;;;;8.35;3.75;;;;;;;14.78;66.00;97043.47;5053056;28;20033;-57
2021/09/03 04:15:30;;;;;;;9.88;3.45;;;;;;;14.91;66.43;97038.47;5053093;28;20021;-56
2021/09/03 04:17:56;;;;;;;7.03;3.45;;;;;;;14.99;66.92;97042.53;5052915;28;20033;-56
2021/09/03 04:20:21;;;;;;;11.57;3.63;;;;;;;15.08;66.97;97039.44;5052829;28;20017;-55
2021/09/03 04:22:47;;;;;;;9.25;3.45;;;;;;;15.12;66.10;97043.66;5052912;28;20025;-53
2021/09/03 04:25:12;;;;;;;6.78;3.30;;;;;;;15.08;64.91;97041.25;5052889;28;20479;-55
2021/09/03 04:27:39;;;;;;;5.78;3.33;;;;;;;15.14;66.16;97036.53;5052974;28;20021;-54
2021/09/03 04:30:06;;;;;;;7.78;3.35;;;;;;;15.38;65.07;97044.16;5053170;28;20029;-51
2021/09/03 04:32:31;;;;;;;9.45;3.72;;;;;;;15.66;63.80;97049.84;5056864;28;20036;-54
2021/09/03 04:34:57;;;;;;;4.65;2.88;;;;;;;16.19;61.72;97052.44;5056931;28;20017;-54
2021/09/03 04:37:23;;;;;;;7.05;3.15;;;;;;;16.82;63.14;97049.97;5056854;28;20122;-53
2021/09/03 04:39:48;;;;;;;7.38;3.47;;;;;;;17.46;59.56;97051.72;5056828;28;20025;-56
2021/09/03 04:42:14;;;;;;;4.43;3.13;;;;;;;18.10;56.63;97048.03;5056504;28;20495;-54
2021/09/03 04:44:39;;;;;;;16.80;3.33;;;;;;;18.73;51.49;97049.53;5056670;28;20477;-54
2021/09/03 04:47:05;;;;;;;7.18;2.90;;;;;;;19.24;51.55;97040.16;5056832;28;20029;-57
2021/09/03 04:49:31;;;;;;;6.40;3.50;;;;;;;19.70;49.60;97039.75;5056747;28;20027;-56
2021/09/03 04:51:56;;;;;;;4.70;2.50;;;;;;;20.13;47.88;97050.19;5056527;28;20021;-57
2021/09/03 04:54:22;;;;;;;8.77;2.67;;;;;;;20.30;45.45;97049.91;5056532;28;20087;-58
2021/09/03 04:56:48;;;;;;;5.57;2.80;;;;;;;20.61;45.54;97040.72;5056464;28;20031;-53
2021/09/03 04:59:13;;;;;;;7.93;2.85;;;;;;;20.93;45.13;97048.22;5056552;28;20344;-58
2021/09/03 05:01:39;;;;;;;12.38;3.28;;;;;;;20.90;41.93;97054.63;5056445;28;20529;-53
2021/09/03 05:04:04;;;;;;;4.38;2.70;;;;;;;20.76;41.30;97052.91;5056366;28;20025;-57
2021/09/03 05:06:30;;;;;;;4.88;2.72;;;;;;;20.66;43.02;97051.88;5056143;28;20481;-57
2021/09/03 05:08:55;;;;;;;5.15;3.08;;;;;;;21.07;42.12;97055.22;5056275;28;20017;-57
2021/09/03 05:11:21;;;;;;;5.63;3.05;;;;;;;21.45;41.20;97066.63;5056408;28;20025;-57
2021/09/03 05:13:47;;;;;;;8.70;3.13;;;;;;;22.00;40.52;97063.47;5056165;28;20025;-56
2021/09/03 05:16:12;;;;;;;5.35;2.70;;;;;;;22.10;38.72;97063.63;5056210;28;20035;-55
2021/09/03 05:18:38;;;;;;;4.43;2.17;;;;;;;21.40;39.56;97060.81;5056073;28;20372;-56
2021/09/03 05:21:07;;;;;;;12.05;3.47;;;;;;;21.58;40.69;97059.44;5056064;28;20036;-56
2021/09/03 05:23:34;;;;;;;6.30;2.75;;;;;;;21.81;39.33;97059.56;5038663;28;20733;-55
2021/09/03 05:26:00;;;;;;;7.68;2.90;;;;;;;22.17;39.48;97055.97;5055961;28;20063;-56
2021/09/03 05:28:29;;;;;;;5.22;2.92;;;;;;;22.64;38.15;97069.25;5056062;28;20479;-55
2021/09/03 05:30:55;;;;;;;3.30;2.67;;;;;;;22.79;38.94;97077.00;5055876;28;20039;-58
2021/09/03 05:33:21;;;;;;;8.60;2.85;;;;;;;23.29;36.71;97083.69;5055796;28;20078;-57
2021/09/03 05:35:49;;;;;;;4.88;3.15;;;;;;;23.39;35.61;97083.84;5055671;28;20390;-59
2021/09/03 05:38:15;;;;;;;5.10;2.67;;;;;;;22.38;36.34;97088.13;5055752;28;20036;-51
2021/09/03 05:40:44;;;;;;;6.18;2.72;;;;;;;22.28;36.95;97088.00;5037887;28;20029;-55
2021/09/03 05:43:10;;;;;;;4.30;2.80;;;;;;;22.64;36.31;97084.41;5055227;28;20502;-55
2021/09/03 05:45:36;;;;;;;4.95;3.00;;;;;;;22.66;36.59;97083.31;5055630;28;20037;-56
2021/09/03 05:48:02;;;;;;;8.38;2.75;;;;;;;22.94;35.83;97083.75;5055658;28;20052;-54
2021/09/03 05:50:29;;;;;;;7.00;2.45;;;;;;;22.75;35.81;97081.72;5055528;28;20100;-57
2021/09/03 05:52:55;;;;;;;5.03;2.63;;;;;;;22.69;36.41;97080.41;5055451;28;20048;-58
2021/09/03 05:55:20;;;;;;;7.07;2.67;;;;;;;22.95;34.93;97088.16;5055359;28;20493;-57
2021/09/03 05:57:47;;;;;;;5.97;2.40;;;;;;;23.14;35.87;97091.16;5055368;28;20441;-59
2021/09/03 06:00:14;;;;;;;5.03;2.65;;;;;;;23.20;33.70;97083.47;5055369;28;20060;-56
2021/09/03 06:02:39;;;;;;;3.97;2.50;;;;;;;23.02;35.52;97077.81;5055331;28;20021;-55
2021/09/03 06:05:06;;;;;;;5.22;2.63;;;;;;;23.25;35.65;97087.59;5055109;28;20028;-59
2021/09/03 06:07:31;;;;;;;3.13;2.10;;;;;;;23.35;34.46;97096.53;5055155;28;20463;-55
2021/09/03 06:09:57;;;;;;;7.47;2.55;;;;;;;23.56;34.26;97087.75;5055058;28;20070;-54
2021/09/03 06:12:23;;;;;;;6.97;2.40;;;;;;;23.77;35.14;97097.63;5054966;28;20067;-58
2021/09/03 06:14:48;;;;;;;5.25;2.72;;;;;;;23.53;33.73;97088.88;5055008;28;20086;-56
2021/09/03 06:17:17;;;;;;;4.20;2.15;;;;;;;23.42;32.78;97105.75;5054988;28;20021;-56
2021/09/03 06:19:43;;;;;;;6.20;2.60;;;;;;;22.53;34.57;97098.53;5054915;28;20033;-52
2021/09/03 06:22:08;;;;;;;5.07;2.60;;;;;;;22.00;36.12;97099.91;5054870;28;20048;-56
2021/09/03 06:24:35;;;;;;;3.58;2.47;;;;;;;21.93;35.79;97096.84;5054868;28;20115;-54
2021/09/03 06:27:06;;;;;;;4.75;2.60;;;;;;;21.98;36.38;97097.38;5054884;28;20029;-56
2021/09/03 06:29:45;;;;;;;4.40;2.42;;;;;;;21.84;36.54;97101.91;5054784;28;20028;-57
2021/09/03 06:32:19;;;;;;;4.00;2.42;;;;;;;21.84;36.34;97115.22;5054689;28;20031;-53
2021/09/03 06:34:51;;;;;;;4.80;2.17;;;;;;;22.22;36.72;97115.94;5054578;28;20113;-58
2021/09/03 06:37:18;;;;;;;5.00;2.63;;;;;;;22.03;36.97;97116.50;5054787;28;20025;-56
2021/09/03 06:39:44;;;;;;;4.07;2.97;;;;;;;22.05;37.05;97116.38;5054590;28;20070;-59
2021/09/03 06:42:10;;;;;;;5.18;2.92;;;;;;;22.31;36.65;97126.84;5054248;28;20544;-54
2021/09/03 06:44:37;;;;;;;5.00;2.55;;;;;;;22.54;36.62;97130.41;5054510;28;20021;-57
2021/09/03 06:47:04;;;;;;;7.72;3.05;;;;;;;22.88;35.02;97134.09;5054394;28;20091;-55
2021/09/03 06:49:31;;;;;;;4.93;2.90;;;;;;;22.80;36.18;97130.22;5054308;28;20021;-55
2021/09/03 06:51:57;;;;;;;5.03;2.80;;;;;;;23.04;35.64;97134.56;5054358;28;20037;-53
2021/09/03 06:54:23;;;;;;;9.75;3.20;;;;;;;23.26;34.90;97135.50;5053570;28;20481;-57
2021/09/03 06:56:53;;;;;;;3.08;2.22;;;;;;;23.09;34.34;97142.22;5054236;28;20031;-54
2021/09/03 06:59:19;;;;;;;7.37;2.87;;;;;;;23.31;35.88;97145.81;5054362;28;20029;-55
2021/09/03 07:01:51;;;;;;;5.93;3.38;;;;;;;23.43;33.76;97144.00;5054307;28;20349;-57
2021/09/03 07:04:17;;;;;;;5.18;2.90;;;;;;;23.35;34.12;97148.09;5054090;28;20438;-51
2021/09/03 07:06:43;;;;;;;3.13;2.40;;;;;;;23.20;34.65;97144.00;5053934;28;20027;-56
2021/09/03 07:09:09;;;;;;;4.72;2.40;;;;;;;23.45;33.25;97142.06;5053945;28;20020;-54
2021/09/03 07:11:35;;;;;;;4.93;2.85;;;;;;;23.68;35.40;97147.31;5054104;28;20021;-57
2021/09/03 07:14:03;;;;;;;7.10;3.00;;;;;;;23.71;32.94;97141.72;5053848;28;20112;-55
2021/09/03 07:16:30;;;;;;;14.43;3.55;;;;;;;23.41;35.16;97141.44;5035980;28;20090;-56
2021/09/03 07:19:03;;;;;;;5.40;3.00;;;;;;;23.60;33.56;97143.44;5053872;28;20025;-52
2021/09/03 07:21:30;;;;;;;5.47;3.00;;;;;;;22.75;33.98;97150.22;5053704;28;20098;-54
2021/09/03 07:24:03;;;;;;;5.63;2.90;;;;;;;22.66;36.92;97149.13;5053614;28;20053;-58
2021/09/03 07:26:30;;;;;;;13.88;2.97;;;;;;;22.54;35.51;97148.19;5053599;28;20499;-55
2021/09/03 07:28:56;;;;;;;11.00;3.22;;;;;;;22.59;35.63;97140.75;5053642;28;20451;-57
2021/09/03 07:31:23;;;;;;;7.32;2.78;;;;;;;22.39;35.59;97144.94;5053776;28;20099;-56
2021/09/03 07:33:49;;;;;;;4.63;3.10;;;;;;;22.40;36.39;97138.63;5053538;28;20458;-53
2021/09/03 07:36:15;;;;;;;6.47;3.72;;;;;;;22.37;35.49;97133.53;5035844;28;20039;-54
2021/09/03 07:38:41;;;;;;;14.05;3.05;;;;;;;22.76;35.26;97136.75;5053553;28;20463;-54
2021/09/03 07:41:07;;;;;;;8.15;3.17;;;;;;;23.23;36.30;97138.41;5053268;28;20044;-57
2021/09/03 07:43:32;;;;;;;7.65;3.88;;;;;;;23.58;33.88;97141.91;5053480;28;20033;-54
2021/09/03 07:45:58;;;;;;;5.28;2.80;;;;;;;23.62;34.71;97137.16;5053321;28;20036;-57
2021/09/03 07:48:24;;;;;;;6.95;3.03;;;;;;;23.69;34.05;97123.16;5053561;28;20028;-55
2021/09/03 07:50:50;;;;;;;4.78;3.20;;;;;;;23.68;35.53;97120.63;5053333;28;20021;-56
2021/09/03 07:53:16;;;;;;;5.00;2.88;;;;;;;23.36;34.47;97116.94;5053277;28;20032;-54
2021/09/03 07:55:42;;;;;;;3.63;2.70;;;;;;;23.11;35.26;97121.56;5053710;28;20033;-56
2021/09/03 07:58:08;;;;;;;7.68;2.58;;;;;;;23.24;35.92;97126.78;5053232;28;20033;-57
2021/09/03 08:00:35;;;;;;;4.78;3.15;;;;;;;23.15;36.76;97124.84;5053269;28;20021;-59
2021/09/03 08:03:01;;;;;;;6.72;3.50;;;;;;;23.65;35.94;97128.88;5053203;28;20032;-58
2021/09/03 08:05:27;;;;;;;7.15;3.13;;;;;;;24.20;35.68;97120.75;5052252;28;20033;-58
2021/09/03 08:07:53;;;;;;;5.03;3.05;;;;;;;24.46;34.07;97120.38;5053021;28;20025;-56
2021/09/03 08:10:18;;;;;;;7.28;3.45;;;;;;;24.51;32.56;97121.78;5053149;28;20103;-57
2021/09/03 08:12:45;;;;;;;3.83;2.88;;;;;;;24.84;34.37;97119.84;5053007;28;20029;-56
2021/09/03 08:15:12;;;;;;;5.03;2.97;;;;;;;25.03;32.03;97127.13;5052976;28;20031;-57
2021/09/03 08:17:38;;;;;;;7.53;3.15;;;;;;;24.79;32.66;97122.06;5052941;28;20494;-56
2021/09/03 08:20:10;;;;;;;5.78;3.47;;;;;;;24.83;34.04;97123.50;5052783;28;20090;-55
2021/09/03 08:22:41;;;;;;;4.75;3.03;;;;;;;25.29;32.63;97107.91;5052900;28;20418;-54
2021/09/03 08:25:09;;;;;;;6.70;4.20;;;;;;;25.14;31.03;97101.25;5052922;28;20479;-57
2021/09/03 08:27:36;;;;;;;8.00;3.20;;;;;;;24.88;32.34;97105.25;5052885;28;20068;-53
2021/09/03 08:30:06;;;;;;;4.57;2.80;;;;;;;24.79;33.55;97100.66;5052777;28;20402;-54
2021/09/03 08:32:31;;;;;;;3.27;2.33;;;;;;;24.72;32.60;97111.91;5052795;28;20024;-57
2021/09/03 08:34:58;;;;;;;6.47;2.65;;;;;;;25.02;33.61;97104.03;5052821;28;20033;-58
2021/09/03 08:37:26;;;;;;;7.78;3.55;;;;;;;24.98;32.94;97103.44;5052653;28;20032;-53
2021/09/03 08:39:54;;;;;;;10.80;3.13;;;;;;;24.96;32.02;97093.88;5052882;28;20021;-57
2021/09/03 08:42:21;;;;;;;7.78;3.47;;;;;;;25.07;33.85;97107.13;5052229;28;20444;-56
2021/09/03 08:44:49;;;;;;;5.13;2.83;;;;;;;24.65;32.93;97100.03;5052700;28;20030;-56
2021/09/03 08:47:17;;;;;;;8.40;3.15;;;;;;;24.71;34.53;97096.84;5052611;28;20021;-57
2021/09/03 08:49:44;;;;;;;5.47;2.70;;;;;;;24.86;34.50;97091.97;5052956;28;20463;-58
2021/09/03 08:52:10;;;;;;;6.80;3.40;;;;;;;25.08;34.63;97095.44;5052856;28;20021;-55
2021/09/03 08:54:37;;;;;;;8.55;3.30;;;;;;;25.23;32.18;97084.38;5052472;28;20027;-56
2021/09/03 08:57:09;;;;;;;7.18;3.65;;;;;;;25.19;32.28;97083.78;5052441;28;20047;-55
2021/09/03 08:59:38;;;;;;;7.47;3.33;;;;;;;24.69;34.63;97084.59;5052453;28;20467;-54
2021/09/03 09:02:15;;;;;;;4.47;3.03;;;;;;;24.53;32.77;97077.91;5052784;28;20025;-58
2021/09/03 09:05:05;;;;;;;5.00;3.20;;;;;;;24.51;34.46;97073.66;5052238;28;20025;-55
2021/09/03 09:07:31;;;;;;;4.55;2.78;;;;;;;24.39;32.67;97079.13;5051802;28;20060;-55
2021/09/03 09:10:05;;;;;;;5.10;3.08;;;;;;;23.96;33.96;97064.91;5052737;28;20079;-58
2021/09/03 09:12:35;;;;;;;6.60;3.65;;;;;;;23.78;34.72;97060.13;5052720;28;20026;-54
2021/09/03 09:15:10;;;;;;;7.63;2.85;;;;;;;23.94;34.89;97062.38;5052420;28;20438;-55
2021/09/03 09:17:41;;;;;;;9.27;3.88;;;;;;;24.00;34.43;97068.16;5055122;28;20078;-58
2021/09/03 09:20:10;;;;;;;8.13;3.30;;;;;;;24.38;35.64;97069.38;5056054;28;20032;-58
2021/09/03 09:22:53;;;;;;;5.40;3.22;;;;;;;24.72;33.45;97062.94;5056061;28;20028;-56
2021/09/03 09:25:23;;;;;;;6.60;3.13;;;;;;;24.70;33.82;97062.22;5055879;28;20063;-57
2021/09/03 09:27:50;;;;;;;8.43;2.90;;;;;;;24.95;33.70;97066.25;5055961;28;20025;-56
2021/09/03 09:30:27;;;;;;;5.63;3.00;;;;;;;24.82;32.11;97060.28;5055971;28;20029;-55
2021/09/03 09:33:14;;;;;;;5.07;2.85;;;;;;;25.02;34.02;97063.06;5056004;28;20025;-56
2021/09/03 09:35:51;;;;;;;9.80;3.15;;;;;;;25.09;32.37;97058.84;5055908;28;20044;-59
2021/09/03 09:38:36;;;;;;;12.90;3.53;;;;;;;24.76;33.88;97055.47;5055828;28;20035;-56
2021/09/03 09:41:08;;;;;;;4.07;3.25;;;;;;;24.80;34.89;97051.56;5055771;28;20029;-57
2021/09/03 09:43:37;;;;;;;3.83;2.50;;;;;;;24.90;34.26;97055.16;5055635;28;20399;-58
2021/09/03 09:46:09;;;;;;;7.38;2.88;;;;;;;24.72;33.17;97052.22;5055448;28;20410;-57
2021/09/03 09:48:53;;;;;;;5.47;2.85;;;;;;;25.19;33.55;97042.81;5055743;28;20032;-58
2021/09/03 09:51:31;;;;;;;6.35;3.10;;;;;;;25.42;33.58;97047.88;5055786;28;20400;-54
2021/09/03 09:54:15;;;;;;;6.03;2.80;;;;;;;25.51;32.76;97036.34;5055469;28;20467;-59
2021/09/03 09:56:47;;;;;;;8.27;4.07;;;;;;;25.70;31.93;97037.34;5055314;28;20029;-54
2021/09/03 09:59:14;;;;;;;8.40;3.08;;;;;;;25.79;32.67;97028.47;5055464;28;20025;-55
2021/09/03 10:01:42;;;;;;;6.50;2.65;;;;;;;25.57;33.30;97029.56;5055469;28;20017;-56
2021/09/03 10:04:10;;;;;;;6.05;2.90;;;;;;;25.38;32.50;97036.63;5055429;28;20021;-56
2021/09/03 10:06:37;;;;;;;10.95;2.90;;;;;;;25.28;34.11;97036.59;5055091;28;20078;-59
2021/09/03 10:09:08;;;;;;;7.80;2.97;;;;;;;24.84;31.64;97037.75;5055116;28;20479;-58
2021/09/03 10:11:34;;;;;;;;;;;;;;;24.56;33.84;97034.03;5055617;28;20025;-55
2021/09/03 10:14:00;;;;;;;5.97;3.17;;;;;;;24.27;33.49;97034.72;5055182;28;19912;-57
2021/09/03 10:16:25;;;;;;;7.40;2.85;;;;;;;24.19;34.18;97028.22;5055121;28;20017;-54
2021/09/03 10:18:55;;;;;;;8.13;2.88;;;;;;;24.20;34.36;97013.88;5055025;28;20037;-57
2021/09/03 10:21:23;;;;;;;4.03;2.83;;;;;;;24.33;34.75;97003.00;5054913;28;20479;-56
2021/09/03 10:23:55;;;;;;;6.60;2.97;;;;;;;24.62;34.74;97004.06;5055035;28;20033;-58
2021/09/03 10:26:28;;;;;;;5.15;2.70;;;;;;;24.84;34.37;97004.84;5054800;28;20063;-58
2021/09/03 10:29:20;;;;;;;2.78;2.35;;;;;;;25.13;33.34;96998.69;5053870;28;20098;-54
2021/09/03 10:31:57;;;;;;;4.00;2.90;;;;;;;25.04;31.64;96991.53;5054839;28;20021;-56
2021/09/03 10:34:42;;;;;;;6.93;2.95;;;;;;;24.34;31.16;96993.13;5054583;28;20425;-55
2021/09/03 10:37:17;;;;;;;7.85;2.55;;;;;;;24.35;34.15;96981.47;5054678;28;20029;-56
2021/09/03 10:40:04;;;;;;;6.03;2.65;;;;;;;24.84;31.36;96983.44;5054628;28;20413;-59
2021/09/03 10:42:38;;;;;;;5.28;2.88;;;;;;;24.82;32.21;96980.03;5054221;28;20052;-55
2021/09/03 10:45:13;;;;;;;4.47;3.13;;;;;;;25.04;33.17;96976.31;5054277;28;20052;-56
2021/09/03 10:47:58;;;;;;;4.45;2.67;;;;;;;25.33;32.75;96979.97;5054468;28;20040;-57
2021/09/03 10:50:30;;;;;;;6.38;2.67;;;;;;;25.55;33.29;96975.34;5054352;28;20056;-55
2021/09/03 10:53:05;;;;;;;6.32;2.75;;;;;;;25.46;32.41;96966.28;5054384;28;20020;-56
2021/09/03 10:55:50;;;;;;;5.22;2.67;;;;;;;25.55;32.79;96969.97;5054307;28;20029;-56
2021/09/03 10:58:41;;;;;;;5.00;2.70;;;;;;;25.87;31.67;96982.22;5054203;28;20079;-55
2021/09/03 11:01:10;;;;;;;8.85;2.90;;;;;;;25.20;30.16;96967.72;5054122;28;20375;-57
2021/09/03 11:03:54;;;;;;;4.85;2.63;;;;;;;25.08;31.78;96971.53;5054174;28;20464;-58
2021/09/03 11:06:28;;;;;;;8.95;2.50;;;;;;;25.27;32.69;96969.84;5054255;28;20467;-58
2021/09/03 11:09:03;;;;;;;8.65;3.55;;;;;;;25.31;31.73;96965.91;5053961;28;20028;-55
2021/09/03 11:11:38;;;;;;;4.43;2.85;;;;;;;24.78;31.21;96968.78;5054093;28;20027;-55
2021/09/03 11:14:14;;;;;;;6.45;3.00;;;;;;;24.69;32.95;96964.25;5054076;28;20032;-58
2021/09/03 11:16:44;;;;;;;6.18;3.08;;;;;;;24.62;33.11;96969.28;5053998;28;20056;-55
2021/09/03 11:19:14;;;;;;;4.38;2.80;;;;;;;24.58;34.11;96966.06;5053910;28;20036;-54
2021/09/03 11:21:46;;;;;;;4.60;3.00;;;;;;;24.41;33.44;96967.53;5053779;28;20040;-56
2021/09/03 11:24:14;;;;;;;7.07;3.00;;;;;;;24.55;34.55;96970.81;5053783;28;20497;-58
2021/09/03 11:26:42;;;;;;;10.52;3.72;;;;;;;24.48;31.34;96968.69;5053728;28;20428;-56
2021/09/03 11:29:29;;;;;;;4.18;2.95;;;;;;;24.47;33.99;96966.19;5053736;28;20108;-57
2021/09/03 11:32:22;;;;;;;4.22;3.13;;;;;;;24.53;35.54;96965.59;5053579;28;20021;-57
2021/09/03 11:35:07;;;;;;;4.30;3.03;;;;;;;24.54;34.54;96969.13;5049910;28;20036;-55